Time;durP1;ratioP1;P1;durP2;ratioP2;P2;SDS_P1;SDS_P2;PMS_P1;PMS_P2;Temp;Humidity;BMP_temperature;BMP_pressure;BME280_temperature;BME280_humidity;BME280_pressure;Samples;Min_cycle;Max_cycle;Signal;HPM_P1;HPM_P2
2023/05/31 00:03:35;;;;;;;16.73;8.75;;;12.70;99.90;;;;;;7329535;32;20677;-55
2023/05/31 00:07:37;;;;;;;14.98;9.82;;;12.60;99.90;;;;;;7325699;32;20132;-56
2023/05/31 00:11:39;;;;;;;12.73;9.20;;;12.50;99.90;;;;;;7332493;32;20201;-54
2023/05/31 00:15:41;;;;;;;13.48;9.60;;;12.50;99.90;;;;;;7330397;32;20175;-55
2023/05/31 00:19:43;;;;;;;16.35;10.38;;;12.50;99.90;;;;;;7326236;32;20293;-55
2023/05/31 00:23:44;;;;;;;15.73;10.20;;;12.50;99.90;;;;;;7329273;32;20518;-56
2023/05/31 00:27:46;;;;;;;15.15;9.55;;;12.50;99.90;;;;;;7331772;32;20540;-55
2023/05/31 00:31:48;;;;;;;15.32;9.60;;;12.40;99.90;;;;;;7330210;32;20528;-55
2023/05/31 00:35:50;;;;;;;14.98;9.88;;;12.40;99.90;;;;;;7326442;32;20442;-55
2023/05/31 00:39:51;;;;;;;15.00;10.48;;;12.40;99.90;;;;;;7322997;32;20226;-55
2023/05/31 00:43:53;;;;;;;17.15;10.43;;;12.30;99.90;;;;;;7326708;32;20219;-55
2023/05/31 00:47:56;;;;;;;18.10;10.23;;;12.30;99.90;;;;;;7309927;32;20453;-56
2023/05/31 00:51:58;;;;;;;14.02;9.60;;;12.30;99.90;;;;;;7326909;32;20191;-55
2023/05/31 00:56:00;;;;;;;15.68;9.93;;;12.30;99.90;;;;;;7323627;32;20113;-55
2023/05/31 01:00:04;;;;;;;14.85;9.82;;;12.20;99.90;;;;;;7339032;32;20209;-55
2023/05/31 01:04:08;;;;;;;15.93;10.13;;;12.20;99.90;;;;;;7322649;32;20608;-57
2023/05/31 01:08:10;;;;;;;16.98;9.98;;;12.10;99.90;;;;;;7337146;32;20497;-55
2023/05/31 01:12:40;;;;;;;16.60;10.55;;;12.20;99.90;;;;;;7335874;32;20103;-55
2023/05/31 01:16:52;;;;;;;17.77;10.20;;;12.10;99.90;;;;;;7335503;32;20205;-55
2023/05/31 01:20:57;;;;;;;15.57;10.60;;;12.10;99.90;;;;;;7327658;32;20123;-56
2023/05/31 01:25:08;;;;;;;16.98;9.68;;;12.10;99.90;;;;;;7334635;32;20130;-55
2023/05/31 01:29:14;;;;;;;15.13;10.15;;;12.00;99.90;;;;;;7343989;32;20171;-56
2023/05/31 01:33:17;;;;;;;16.33;9.95;;;12.00;99.90;;;;;;7341554;32;20149;-56
2023/05/31 01:37:19;;;;;;;20.10;10.18;;;12.00;99.90;;;;;;7332170;32;20160;-55
2023/05/31 01:41:23;;;;;;;18.33;11.60;;;12.00;99.90;;;;;;7338639;32;20120;-55
2023/05/31 01:45:26;;;;;;;17.83;11.00;;;12.00;99.90;;;;;;7337904;32;20395;-55
2023/05/31 01:49:28;;;;;;;15.82;10.50;;;12.00;99.90;;;;;;7328220;32;20126;-55
2023/05/31 01:53:30;;;;;;;18.60;11.52;;;12.00;99.90;;;;;;7328527;32;20210;-55
2023/05/31 01:57:34;;;;;;;20.55;11.73;;;11.90;99.90;;;;;;7330926;32;20113;-55
2023/05/31 02:01:37;;;;;;;16.62;11.38;;;11.90;99.90;;;;;;7329468;32;20593;-55
2023/05/31 02:05:54;;;;;;;16.75;11.05;;;11.90;99.90;;;;;;7328111;32;20119;-56
2023/05/31 02:09:56;;;;;;;;;;;11.90;99.90;;;;;;7321610;32;20103;-55
2023/05/31 02:13:58;;;;;;;18.30;11.85;;;11.80;99.90;;;;;;7318173;32;20021;-56
2023/05/31 02:18:00;;;;;;;17.12;11.60;;;11.80;99.90;;;;;;7329600;32;20107;-57
2023/05/31 02:22:02;;;;;;;17.23;11.10;;;11.70;99.90;;;;;;7328671;32;20230;-60
2023/05/31 02:26:07;;;;;;;22.33;12.93;;;11.70;99.90;;;;;;7330265;32;20819;-56
2023/05/31 02:30:10;;;;;;;24.25;13.85;;;11.70;99.90;;;;;;7329749;32;20111;-57
2023/05/31 02:34:12;;;;;;;19.55;13.75;;;11.70;99.90;;;;;;7336332;32;20156;-55
2023/05/31 02:38:13;;;;;;;21.02;14.18;;;11.60;99.90;;;;;;7326345;32;20189;-56
2023/05/31 02:42:15;;;;;;;20.55;14.18;;;11.60;99.90;;;;;;7323951;32;20103;-55
2023/05/31 02:46:17;;;;;;;22.55;14.82;;;11.50;99.90;;;;;;7326811;32;20239;-55
2023/05/31 02:50:19;;;;;;;19.70;14.35;;;11.40;99.90;;;;;;7330443;32;20112;-55
2023/05/31 02:54:21;;;;;;;22.70;14.90;;;11.40;99.90;;;;;;7326462;32;20135;-55
2023/05/31 02:58:23;;;;;;;21.90;14.93;;;11.30;99.90;;;;;;7331439;32;20122;-55
2023/05/31 03:02:25;;;;;;;25.05;16.23;;;11.30;99.90;;;;;;7331423;32;20123;-56
2023/05/31 03:06:28;;;;;;;21.58;16.83;;;11.30;99.90;;;;;;7333122;32;20188;-55
2023/05/31 03:10:30;;;;;;;21.25;15.77;;;11.30;99.90;;;;;;7333068;32;20284;-55
2023/05/31 03:14:32;;;;;;;23.33;16.55;;;11.30;99.90;;;;;;7333921;32;20560;-54
2023/05/31 03:18:33;;;;;;;22.95;17.27;;;11.30;99.90;;;;;;7331521;32;20096;-55
2023/05/31 03:22:36;;;;;;;23.08;16.85;;;11.20;99.90;;;;;;7333899;32;20178;-55
2023/05/31 03:26:38;;;;;;;23.50;17.52;;;11.20;99.90;;;;;;7310252;32;20172;-55
2023/05/31 03:30:40;;;;;;;23.10;16.30;;;11.20;99.90;;;;;;7328572;32;20118;-55
2023/05/31 03:34:42;;;;;;;23.87;17.45;;;11.20;99.90;;;;;;7321570;32;20829;-55
2023/05/31 03:38:43;;;;;;;22.75;16.27;;;11.20;99.90;;;;;;7331507;32;20158;-56
2023/05/31 03:42:45;;;;;;;22.62;16.05;;;11.20;99.90;;;;;;7328949;32;20122;-54
2023/05/31 03:46:47;;;;;;;24.55;15.63;;;11.10;99.90;;;;;;7321078;32;20107;-55
2023/05/31 03:50:49;;;;;;;23.33;15.93;;;11.20;99.90;;;;;;7312285;32;20103;-55
2023/05/31 03:54:51;;;;;;;22.85;15.10;;;11.20;99.90;;;;;;7329281;32;20130;-55
2023/05/31 03:58:52;;;;;;;20.23;15.43;;;11.20;99.90;;;;;;7329637;32;20256;-54
2023/05/31 04:02:54;;;;;;;19.73;15.00;;;11.20;99.90;;;;;;7329001;32;20215;-55
2023/05/31 04:07:05;;;;;;;18.52;14.32;;;11.30;99.90;;;;;;7321212;32;20115;-54
2023/05/31 04:11:07;;;;;;;21.37;14.23;;;11.30;99.90;;;;;;7335786;32;20103;-55
2023/05/31 04:15:10;;;;;;;20.73;14.45;;;11.40;99.90;;;;;;7323496;32;20120;-55
2023/05/31 04:19:11;;;;;;;17.33;12.95;;;11.50;99.90;;;;;;7322792;32;20095;-55
2023/05/31 04:23:13;;;;;;;18.20;12.57;;;11.60;99.90;;;;;;7318488;32;20131;-55
2023/05/31 04:27:18;;;;;;;19.15;13.10;;;11.60;99.90;;;;;;7324751;32;20668;-55
2023/05/31 04:31:20;;;;;;;17.42;13.65;;;11.70;99.90;;;;;;7331761;32;20152;-55
2023/05/31 04:35:22;;;;;;;21.58;13.10;;;11.80;99.90;;;;;;7325368;32;20229;-54
2023/05/31 04:39:24;;;;;;;22.80;13.10;;;12.00;99.90;;;;;;7324675;32;20104;-56
2023/05/31 04:43:26;;;;;;;16.23;12.52;;;12.00;99.90;;;;;;7308771;32;20095;-56
2023/05/31 04:47:28;;;;;;;15.10;11.85;;;12.20;99.90;;;;;;7329047;32;20142;-57
2023/05/31 04:51:31;;;;;;;14.60;11.27;;;12.40;99.90;;;;;;7332455;32;20237;-54
2023/05/31 04:55:32;;;;;;;16.55;11.93;;;12.50;99.90;;;;;;7326383;32;20383;-56
2023/05/31 04:59:34;;;;;;;17.08;12.45;;;12.70;99.90;;;;;;7327175;32;20588;-56
2023/05/31 05:03:36;;;;;;;17.08;10.77;;;12.80;99.90;;;;;;7330030;32;20104;-57
2023/05/31 05:07:38;;;;;;;15.68;10.63;;;13.00;99.90;;;;;;7325587;32;21249;-56
2023/05/31 05:11:40;;;;;;;16.85;9.90;;;13.10;99.90;;;;;;7322504;32;20119;-56
2023/05/31 05:15:42;;;;;;;15.05;9.85;;;13.30;99.90;;;;;;7302368;32;20099;-55
2023/05/31 05:19:44;;;;;;;15.38;9.90;;;13.40;99.90;;;;;;7320725;32;20130;-57
2023/05/31 05:23:46;;;;;;;15.10;9.63;;;13.50;99.90;;;;;;7325542;32;20216;-55
2023/05/31 05:27:48;;;;;;;13.73;10.20;;;13.80;99.90;;;;;;7321554;32;20175;-56
2023/05/31 05:31:50;;;;;;;15.23;9.82;;;13.70;99.90;;;;;;7321607;32;20107;-55
2023/05/31 05:35:52;;;;;;;14.02;9.90;;;13.90;99.90;;;;;;7318116;32;20100;-56
2023/05/31 05:39:54;;;;;;;13.38;9.05;;;14.10;99.90;;;;;;7323305;32;20662;-56
2023/05/31 05:43:55;;;;;;;14.18;8.80;;;14.40;99.90;;;;;;7322143;32;20279;-56
2023/05/31 05:47:57;;;;;;;11.93;8.85;;;14.70;99.90;;;;;;7324327;32;20201;-56
2023/05/31 05:51:59;;;;;;;13.02;9.15;;;15.20;99.90;;;;;;7326838;32;20159;-56
2023/05/31 05:56:01;;;;;;;12.35;8.50;;;15.20;99.90;;;;;;7332289;32;20104;-55
2023/05/31 06:00:14;;;;;;;13.00;8.55;;;15.50;99.90;;;;;;7327362;32;20205;-56
2023/05/31 06:04:15;;;;;;;13.48;7.87;;;15.90;99.90;;;;;;7331008;32;20126;-56
2023/05/31 06:08:18;;;;;;;13.15;8.25;;;16.10;99.90;;;;;;7322624;32;20203;-57
2023/05/31 06:12:20;;;;;;;10.30;8.07;;;15.90;99.90;;;;;;7321820;32;20372;-56
2023/05/31 06:16:23;;;;;;;13.93;7.18;;;16.00;99.90;;;;;;7326576;32;20454;-55
2023/05/31 06:20:26;;;;;;;14.40;6.95;;;16.30;99.90;;;;;;7334715;32;20573;-56
2023/05/31 06:24:28;;;;;;;13.07;7.10;;;17.70;99.90;;;;;;7323653;32;20180;-55
2023/05/31 06:28:30;;;;;;;11.95;7.53;;;18.70;99.90;;;;;;7307502;32;20130;-57
2023/05/31 06:32:38;;;;;;;14.32;7.37;;;18.40;99.90;;;;;;7328936;32;20104;-56
2023/05/31 06:36:41;;;;;;;15.80;12.05;;;18.70;99.90;;;;;;7312710;32;20143;-57
2023/05/31 06:40:43;;;;;;;11.43;6.15;;;19.10;99.90;;;;;;7324637;32;20301;-57
2023/05/31 06:44:45;;;;;;;8.23;5.72;;;20.10;99.90;;;;;;7331165;32;20099;-56
2023/05/31 06:48:57;;;;;;;7.22;4.78;;;19.90;99.90;;;;;;7315507;32;20242;-57
2023/05/31 06:53:13;;;;;;;9.75;5.87;;;20.00;99.90;;;;;;7331504;32;20629;-58
2023/05/31 06:57:15;;;;;;;8.75;5.45;;;19.60;99.90;;;;;;7333583;32;20554;-57
2023/05/31 07:01:16;;;;;;;9.27;5.45;;;19.60;99.90;;;;;;7332623;32;20478;-55
2023/05/31 07:05:25;;;;;;;10.85;6.15;;;19.20;99.90;;;;;;7324158;32;20092;-56
2023/05/31 07:09:27;;;;;;;10.10;5.37;;;19.20;99.90;;;;;;7323839;32;20226;-55
2023/05/31 07:13:29;;;;;;;7.22;5.15;;;19.80;99.90;;;;;;7331636;32;20205;-56
2023/05/31 07:17:31;;;;;;;9.60;5.30;;;19.70;99.90;;;;;;7329142;32;20119;-56
2023/05/31 07:21:33;;;;;;;8.55;4.70;;;19.50;99.90;;;;;;7325925;32;20630;-57
2023/05/31 07:25:35;;;;;;;12.60;5.68;;;19.50;99.90;;;;;;7313419;32;20107;-58
2023/05/31 07:29:37;;;;;;;8.35;5.00;;;19.20;99.90;;;;;;7328838;32;20104;-57
2023/05/31 07:33:39;;;;;;;9.43;4.40;;;19.20;99.90;;;;;;7326586;32;20278;-57
2023/05/31 07:37:41;;;;;;;8.07;4.10;;;19.70;99.90;;;;;;7329745;32;20743;-57
2023/05/31 07:41:43;;;;;;;9.68;4.90;;;20.00;99.90;;;;;;7326835;32;20198;-57
2023/05/31 07:45:44;;;;;;;7.68;4.70;;;19.40;99.90;;;;;;7325148;32;20912;-58
2023/05/31 07:49:46;;;;;;;10.43;4.32;;;19.20;99.90;;;;;;7328897;32;20681;-59
2023/05/31 07:53:48;;;;;;;10.77;4.95;;;19.50;99.90;;;;;;7323724;32;20119;-58
2023/05/31 07:57:50;;;;;;;8.60;4.55;;;19.00;99.90;;;;;;7327496;32;20125;-58
2023/05/31 08:01:52;;;;;;;8.07;3.70;;;19.00;99.90;;;;;;7329669;32;20605;-58
2023/05/31 08:05:53;;;;;;;9.90;4.18;;;19.10;99.90;;;;;;7329563;32;20122;-58
2023/05/31 08:09:57;;;;;;;9.15;4.37;;;19.50;99.90;;;;;;7324276;32;20129;-57
2023/05/31 08:13:59;;;;;;;8.40;3.92;;;20.00;99.90;;;;;;7323784;32;20222;-58
2023/05/31 08:18:01;;;;;;;8.50;4.03;;;20.30;99.90;;;;;;7327919;32;20126;-58
2023/05/31 08:22:04;;;;;;;9.68;3.55;;;20.80;99.90;;;;;;7325900;32;20186;-60
2023/05/31 08:26:06;;;;;;;8.45;4.00;;;21.30;99.90;;;;;;7325261;32;20574;-58
2023/05/31 08:30:09;;;;;;;8.52;4.07;;;21.80;99.90;;;;;;7324178;32;20427;-58
2023/05/31 08:34:12;;;;;;;6.85;3.53;;;22.70;99.90;;;;;;7325403;32;20741;-58
2023/05/31 08:38:14;;;;;;;7.70;3.08;;;22.60;99.90;;;;;;7321637;32;20942;-58
2023/05/31 08:42:22;;;;;;;5.15;3.30;;;22.80;99.90;;;;;;7323162;32;20107;-56
2023/05/31 08:46:25;;;;;;;9.70;3.30;;;22.50;99.90;;;;;;7312306;32;20246;-57
2023/05/31 08:50:29;;;;;;;8.38;3.05;;;21.80;99.90;;;;;;7325576;32;20675;-57
2023/05/31 08:54:31;;;;;;;6.05;2.92;;;21.90;99.90;;;;;;7331470;32;20123;-56
2023/05/31 08:58:35;;;;;;;8.65;2.90;;;21.80;99.90;;;;;;7327977;32;20202;-58
2023/05/31 09:02:38;;;;;;;8.07;3.20;;;22.30;99.90;;;;;;7330242;32;20178;-58
2023/05/31 09:06:40;;;;;;;7.85;3.33;;;23.60;99.90;;;;;;7325356;32;20403;-58
2023/05/31 09:10:42;;;;;;;7.90;2.67;;;23.90;99.90;;;;;;7328226;32;20139;-59
2023/05/31 09:14:44;;;;;;;7.20;2.80;;;23.60;99.90;;;;;;7303957;32;20921;-57
2023/05/31 09:18:45;;;;;;;7.30;2.90;;;24.70;99.90;;;;;;7319323;32;20108;-57
2023/05/31 09:22:51;;;;;;;4.97;2.40;;;24.20;97.40;;;;;;7332101;32;20130;-57
2023/05/31 09:26:53;;;;;;;5.47;2.55;;;25.80;95.70;;;;;;7324017;32;20214;-56
2023/05/31 09:31:01;;;;;;;5.70;2.40;;;25.40;91.60;;;;;;7338335;32;20095;-57
2023/05/31 09:35:12;;;;;;;5.75;2.25;;;24.50;89.60;;;;;;7305044;32;20194;-57
2023/05/31 09:39:13;;;;;;;5.55;2.10;;;23.60;91.40;;;;;;7330268;32;20190;-58
2023/05/31 09:43:15;;;;;;;7.75;2.45;;;24.90;95.30;;;;;;7316014;32;20108;-59
2023/05/31 09:47:24;;;;;;;9.95;2.78;;;25.70;93.80;;;;;;7333669;32;20147;-58
2023/05/31 09:51:26;;;;;;;4.40;2.25;;;25.70;88.40;;;;;;7335637;32;20119;-58
2023/05/31 09:55:40;;;;;;;4.93;2.30;;;25.90;85.30;;;;;;7340791;32;20224;-58
2023/05/31 09:59:43;;;;;;;9.73;2.70;;;24.50;89.80;;;;;;7332053;32;20262;-57
2023/05/31 10:03:49;;;;;;;6.87;2.40;;;24.10;87.50;;;;;;7339003;32;20108;-58
2023/05/31 10:07:53;;;;;;;5.30;2.30;;;24.20;84.80;;;;;;7319533;32;20177;-59
2023/05/31 10:11:57;;;;;;;6.87;2.30;;;24.30;78.90;;;;;;7308482;32;20130;-58
2023/05/31 10:16:09;;;;;;;7.07;2.55;;;25.40;79.20;;;;;;7312618;32;20730;-58
2023/05/31 10:20:15;;;;;;;5.22;1.90;;;23.70;77.80;;;;;;7323679;32;20108;-56
2023/05/31 10:24:25;;;;;;;6.80;1.87;;;23.80;78.50;;;;;;7329087;32;20290;-57
2023/05/31 10:28:31;;;;;;;6.90;1.83;;;24.50;77.10;;;;;;7325027;32;20107;-58
2023/05/31 10:32:37;;;;;;;6.13;2.00;;;24.50;76.80;;;;;;7312922;32;20489;-57
2023/05/31 10:36:39;;;;;;;4.07;2.30;;;24.40;75.00;;;;;;7325400;32;20847;-57
2023/05/31 10:40:49;;;;;;;8.30;2.10;;;23.90;74.10;;;;;;7324613;32;20863;-58
2023/05/31 10:45:25;;;;;;;7.47;1.90;;;23.90;80.30;;;;;;7330106;32;20224;-57
2023/05/31 10:49:31;;;;;;;3.28;1.80;;;24.10;77.60;;;;;;7327227;32;20120;-57
2023/05/31 10:53:40;;;;;;;9.85;1.67;;;24.90;76.90;;;;;;7308895;32;20134;-57
2023/05/31 10:57:42;;;;;;;5.65;2.05;;;25.60;75.20;;;;;;7323962;32;20104;-57
2023/05/31 11:01:44;;;;;;;6.78;1.80;;;25.10;72.30;;;;;;7318738;32;20258;-58
2023/05/31 11:05:55;;;;;;;7.75;1.98;;;24.90;72.40;;;;;;7323895;32;20221;-58
2023/05/31 11:09:59;;;;;;;6.53;2.30;;;25.50;72.70;;;;;;7318729;32;20290;-56
2023/05/31 11:14:06;;;;;;;5.95;2.15;;;25.30;69.50;;;;;;7319194;32;20293;-57
2023/05/31 11:18:12;;;;;;;8.55;2.17;;;25.10;68.60;;;;;;7322863;32;20156;-55
2023/05/31 11:22:16;;;;;;;4.60;1.97;;;24.70;68.90;;;;;;7318541;32;20288;-57
2023/05/31 11:26:18;;;;;;;7.03;2.37;;;24.70;69.70;;;;;;7321241;32;20175;-55
2023/05/31 11:30:20;;;;;;;5.20;1.80;;;24.80;70.10;;;;;;7321968;32;20221;-55
2023/05/31 11:34:24;;;;;;;6.03;2.12;;;25.30;71.90;;;;;;7305537;32;21303;-55
2023/05/31 11:38:25;;;;;;;6.45;2.20;;;25.40;69.00;;;;;;7323064;32;20158;-55
2023/05/31 11:42:31;;;;;;;4.37;1.70;;;24.90;68.40;;;;;;7301214;32;20184;-56
2023/05/31 11:46:36;;;;;;;9.35;2.12;;;25.00;68.10;;;;;;7314440;32;20099;-56
2023/05/31 11:50:38;;;;;;;6.62;2.20;;;25.30;72.20;;;;;;7321711;32;20321;-55
2023/05/31 11:54:43;;;;;;;5.97;2.12;;;25.80;69.30;;;;;;7313275;32;20130;-55
2023/05/31 11:58:48;;;;;;;8.23;2.10;;;25.80;68.10;;;;;;7323911;32;20316;-57
2023/05/31 12:03:04;;;;;;;2.80;1.65;;;25.70;65.70;;;;;;7320646;32;20135;-55
2023/05/31 12:07:19;;;;;;;6.00;1.90;;;26.00;65.30;;;;;;7321597;32;20221;-57
2023/05/31 12:11:21;;;;;;;6.55;1.80;;;26.40;69.40;;;;;;7327944;32;20643;-57
2023/05/31 12:15:23;;;;;;;5.10;1.77;;;26.60;65.60;;;;;;7327334;32;20695;-57
2023/05/31 12:19:25;;;;;;;6.32;1.90;;;26.60;64.10;;;;;;7319179;32;20311;-57
2023/05/31 12:23:27;;;;;;;4.35;1.85;;;27.10;64.90;;;;;;7321112;32;20108;-59
2023/05/31 12:27:29;;;;;;;7.85;1.90;;;27.70;61.40;;;;;;7323076;32;20586;-58
2023/05/31 12:32:03;;;;;;;5.95;1.80;;;27.10;61.20;;;;;;7320927;32;20236;-58
2023/05/31 12:36:05;;;;;;;6.78;1.87;;;27.40;62.70;;;;;;7321182;32;20718;-59
2023/05/31 12:40:22;;;;;;;7.75;1.77;;;27.80;61.10;;;;;;7333293;32;20095;-58
2023/05/31 12:44:26;;;;;;;4.53;1.87;;;27.40;60.50;;;;;;7321585;32;20735;-58
2023/05/31 12:48:27;;;;;;;7.28;1.87;;;28.80;59.80;;;;;;7326418;32;20748;-58
2023/05/31 12:52:30;;;;;;;7.37;2.37;;;27.80;61.00;;;;;;7322721;32;20123;-56
2023/05/31 12:56:32;;;;;;;4.87;2.10;;;27.60;63.50;;;;;;7319871;32;20565;-56
2023/05/31 13:00:34;;;;;;;5.30;1.98;;;27.10;61.00;;;;;;7326390;32;20146;-58
2023/05/31 13:04:35;;;;;;;6.47;2.10;;;26.30;61.70;;;;;;7324753;32;20231;-58
2023/05/31 13:08:37;;;;;;;6.62;2.05;;;26.40;62.20;;;;;;7326065;32;20096;-56
2023/05/31 13:12:39;;;;;;;8.43;2.15;;;26.10;66.10;;;;;;7324877;32;20158;-59
2023/05/31 13:16:42;;;;;;;5.07;2.10;;;26.10;65.80;;;;;;7325402;32;20131;-58
2023/05/31 13:20:43;;;;;;;6.95;2.12;;;26.80;63.60;;;;;;7330887;32;22007;-56
2023/05/31 13:24:45;;;;;;;8.15;1.95;;;26.70;63.20;;;;;;7326411;32;20616;-56
2023/05/31 13:28:47;;;;;;;8.80;2.28;;;26.70;64.30;;;;;;7329275;32;20137;-57
2023/05/31 13:32:49;;;;;;;6.72;2.33;;;26.50;65.70;;;;;;7326956;32;20104;-56
2023/05/31 13:36:52;;;;;;;4.97;2.17;;;26.50;67.10;;;;;;7326663;32;20130;-56
2023/05/31 13:40:53;;;;;;;7.22;2.72;;;26.10;64.70;;;;;;7322046;32;20521;-57
2023/05/31 13:44:55;;;;;;;11.32;2.67;;;25.50;68.00;;;;;;7323866;32;20209;-56
2023/05/31 13:48:57;;;;;;;6.00;2.08;;;25.30;66.30;;;;;;7323105;32;20508;-56
2023/05/31 13:52:59;;;;;;;4.75;2.15;;;25.40;68.30;;;;;;7332882;32;20114;-55
2023/05/31 13:57:01;;;;;;;4.40;1.92;;;25.30;65.20;;;;;;7327677;32;20122;-55
2023/05/31 14:01:07;;;;;;;7.60;2.10;;;25.20;66.70;;;;;;7322750;32;20166;-56
2023/05/31 14:05:09;;;;;;;6.97;2.25;;;26.00;67.20;;;;;;7324849;32;20195;-55
2023/05/31 14:09:11;;;;;;;7.22;1.95;;;26.80;67.20;;;;;;7307265;32;20129;-56
2023/05/31 14:13:14;;;;;;;7.15;2.10;;;27.10;63.00;;;;;;7330767;32;20237;-57
2023/05/31 14:17:15;;;;;;;5.65;2.00;;;27.60;62.90;;;;;;7326046;32;20210;-58
2023/05/31 14:21:17;;;;;;;8.05;1.85;;;28.80;62.20;;;;;;7329565;32;20130;-56
2023/05/31 14:25:19;;;;;;;9.77;2.55;;;28.50;59.90;;;;;;7329068;32;20110;-57
2023/05/31 14:29:21;;;;;;;5.15;2.05;;;27.40;65.10;;;;;;7338297;32;20234;-57
2023/05/31 14:33:25;;;;;;;5.78;2.08;;;28.40;60.90;;;;;;7336551;32;20116;-58
2023/05/31 14:37:27;;;;;;;4.00;1.75;;;28.40;60.80;;;;;;7326968;32;20396;-56
2023/05/31 14:41:44;;;;;;;9.23;2.00;;;27.90;59.80;;;;;;7331318;32;20168;-56
2023/05/31 14:45:47;;;;;;;4.97;2.10;;;28.30;58.00;;;;;;7322289;32;20248;-57
2023/05/31 14:49:49;;;;;;;7.07;2.50;;;27.90;61.30;;;;;;7336703;32;20135;-56
2023/05/31 14:53:50;;;;;;;6.20;1.95;;;27.80;59.40;;;;;;7328592;32;20226;-57
2023/05/31 14:57:55;;;;;;;3.97;1.85;;;28.60;59.80;;;;;;7323763;32;20828;-56
2023/05/31 15:01:57;;;;;;;6.85;2.33;;;28.00;58.80;;;;;;7334817;32;20125;-56
2023/05/31 15:06:00;;;;;;;7.53;2.20;;;27.00;60.70;;;;;;7328118;32;20265;-56
2023/05/31 15:10:02;;;;;;;5.62;2.00;;;27.80;61.70;;;;;;7331042;32;20222;-57
2023/05/31 15:14:05;;;;;;;5.25;2.00;;;28.60;58.80;;;;;;7320972;32;20091;-56
2023/05/31 15:18:09;;;;;;;6.40;2.03;;;27.50;59.70;;;;;;7332068;32;20103;-56
2023/05/31 15:22:11;;;;;;;5.50;2.25;;;26.20;63.70;;;;;;7329493;32;20172;-57
2023/05/31 15:26:14;;;;;;;7.30;2.20;;;25.00;67.10;;;;;;7306487;32;20116;-58
2023/05/31 15:30:16;;;;;;;6.28;2.50;;;24.90;69.80;;;;;;7320958;32;20252;-56
2023/05/31 15:34:18;;;;;;;7.25;2.50;;;24.30;69.40;;;;;;7325348;32;20130;-57
2023/05/31 15:38:20;;;;;;;8.00;1.90;;;23.90;70.70;;;;;;7322840;32;20245;-58
2023/05/31 15:42:22;;;;;;;6.32;2.00;;;23.80;72.20;;;;;;7328651;32;20103;-57
2023/05/31 15:46:23;;;;;;;6.28;1.95;;;23.70;73.40;;;;;;7327723;32;20643;-57
2023/05/31 15:50:25;;;;;;;5.00;2.00;;;23.80;73.40;;;;;;7321261;32;20449;-58
2023/05/31 15:54:27;;;;;;;4.50;2.83;;;23.90;71.30;;;;;;7331526;32;20718;-57
2023/05/31 15:58:30;;;;;;;4.12;2.00;;;24.10;73.80;;;;;;7329305;32;20595;-56
2023/05/31 16:02:32;;;;;;;11.02;2.00;;;23.80;71.90;;;;;;7327800;32;20159;-57
2023/05/31 16:06:35;;;;;;;5.68;1.92;;;23.90;75.70;;;;;;7318622;32;20224;-57
2023/05/31 16:10:37;;;;;;;5.93;2.20;;;23.80;73.00;;;;;;7322596;32;20236;-57
2023/05/31 16:14:40;;;;;;;7.22;1.90;;;23.70;74.00;;;;;;7321141;32;20110;-57
2023/05/31 16:18:42;;;;;;;7.25;2.30;;;23.70;75.70;;;;;;7318673;32;20733;-58
2023/05/31 16:22:44;;;;;;;7.78;2.03;;;23.50;75.70;;;;;;7325639;32;20237;-57
2023/05/31 16:26:50;;;;;;;8.68;5.53;;;23.50;77.50;;;;;;7319230;32;20233;-57
2023/05/31 16:30:51;;;;;;;9.55;2.60;;;23.50;76.00;;;;;;7320877;32;20172;-57
2023/05/31 16:34:53;;;;;;;6.22;2.33;;;23.30;75.50;;;;;;7331449;32;20127;-56
2023/05/31 16:38:55;;;;;;;7.07;2.03;;;23.30;77.00;;;;;;7325375;32;20528;-57
2023/05/31 16:42:57;;;;;;;7.22;2.25;;;23.20;77.90;;;;;;7326173;32;20298;-57
2023/05/31 16:46:59;;;;;;;7.57;2.28;;;23.10;76.80;;;;;;7320920;32;20212;-57
2023/05/31 16:51:01;;;;;;;6.15;2.25;;;23.10;77.40;;;;;;7319370;32;20122;-57
2023/05/31 16:55:03;;;;;;;6.85;2.67;;;23.10;78.70;;;;;;7314117;32;20204;-57
2023/05/31 16:59:04;;;;;;;5.70;2.15;;;23.10;79.20;;;;;;7323287;32;20107;-57
2023/05/31 17:03:07;;;;;;;6.30;2.45;;;23.00;80.50;;;;;;7324493;32;20198;-57
2023/05/31 17:07:09;;;;;;;4.93;2.05;;;23.00;77.90;;;;;;7312396;32;20181;-57
2023/05/31 17:11:11;;;;;;;4.68;1.98;;;23.00;79.00;;;;;;7328864;32;20389;-57
2023/05/31 17:15:13;;;;;;;8.18;2.67;;;23.10;80.50;;;;;;7323551;32;20091;-57
2023/05/31 17:19:15;;;;;;;7.62;2.65;;;23.10;79.90;;;;;;7308534;32;20131;-56
2023/05/31 17:23:17;;;;;;;5.97;2.33;;;23.00;80.50;;;;;;7322690;32;20241;-57
2023/05/31 17:27:19;;;;;;;7.20;2.10;;;22.90;82.90;;;;;;7324567;32;20095;-58
2023/05/31 17:31:21;;;;;;;7.65;2.72;;;22.70;82.40;;;;;;7315612;32;20136;-58
2023/05/31 17:35:23;;;;;;;8.75;2.20;;;22.70;83.00;;;;;;7322975;32;20142;-58
2023/05/31 17:39:25;;;;;;;10.32;6.68;;;22.50;83.20;;;;;;7325378;32;20131;-58
2023/05/31 17:43:27;;;;;;;7.57;2.47;;;22.50;85.10;;;;;;7328141;32;20197;-58
2023/05/31 17:47:29;;;;;;;5.87;2.20;;;22.30;87.40;;;;;;7333224;32;20178;-58
2023/05/31 17:51:31;;;;;;;7.60;2.28;;;22.20;85.90;;;;;;7326935;32;20099;-59
2023/05/31 17:55:33;;;;;;;7.10;2.72;;;22.10;86.70;;;;;;7330295;32;20123;-56
2023/05/31 17:59:35;;;;;;;9.07;2.53;;;22.10;87.80;;;;;;7307844;32;20186;-55
2023/05/31 18:03:37;;;;;;;4.78;1.92;;;22.00;88.50;;;;;;7330203;32;20316;-55
2023/05/31 18:07:39;;;;;;;5.85;2.25;;;21.90;89.00;;;;;;7326167;32;20206;-56
2023/05/31 18:11:41;;;;;;;7.75;2.42;;;21.90;89.00;;;;;;7314551;32;20099;-56
2023/05/31 18:15:43;;;;;;;5.57;2.05;;;21.80;89.10;;;;;;7323189;32;20706;-56
2023/05/31 18:19:45;;;;;;;7.97;2.12;;;21.90;90.10;;;;;;7323664;32;20100;-57
2023/05/31 18:23:46;;;;;;;6.90;2.10;;;21.70;89.20;;;;;;7335024;32;20187;-56
2023/05/31 18:27:48;;;;;;;9.50;2.20;;;21.70;88.00;;;;;;7325982;32;20162;-57
2023/05/31 18:31:50;;;;;;;5.00;2.10;;;21.60;89.40;;;;;;7326731;32;20165;-56
2023/05/31 18:35:52;;;;;;;3.28;1.90;;;21.50;90.20;;;;;;7330229;32;20550;-56
2023/05/31 18:39:54;;;;;;;6.47;1.98;;;21.40;89.40;;;;;;7331635;32;20103;-55
2023/05/31 18:43:56;;;;;;;4.53;2.17;;;21.40;90.20;;;;;;7328499;32;20112;-57
2023/05/31 18:47:58;;;;;;;5.68;2.10;;;21.20;90.40;;;;;;7330271;32;20520;-56
2023/05/31 18:52:00;;;;;;;6.97;1.55;;;21.10;90.80;;;;;;7326441;32;20107;-56
2023/05/31 18:56:02;;;;;;;4.93;1.85;;;21.00;89.90;;;;;;7320718;32;20208;-56
2023/05/31 19:00:05;;;;;;;5.68;1.60;;;20.80;90.50;;;;;;7331248;32;20459;-56
2023/05/31 19:04:07;;;;;;;5.32;1.60;;;20.80;90.20;;;;;;7329281;32;20233;-55
2023/05/31 19:08:09;;;;;;;6.15;1.80;;;20.70;90.30;;;;;;7329386;32;20562;-57
2023/05/31 19:12:12;;;;;;;4.62;1.48;;;20.50;91.30;;;;;;7332120;32;20181;-58
2023/05/31 19:16:31;;;;;;;5.05;1.48;;;20.40;91.00;;;;;;7315091;32;20548;-56
2023/05/31 19:20:33;;;;;;;6.40;2.08;;;20.30;91.10;;;;;;7330663;32;20108;-56
2023/05/31 19:24:35;;;;;;;3.53;1.62;;;20.10;92.00;;;;;;7309518;32;20142;-57
2023/05/31 19:28:37;;;;;;;6.12;1.90;;;20.00;92.40;;;;;;7319752;32;20187;-56
2023/05/31 19:32:39;;;;;;;5.53;1.62;;;19.80;93.00;;;;;;7334566;32;20212;-55
2023/05/31 19:36:41;;;;;;;6.78;1.80;;;19.90;92.90;;;;;;7328552;32;20168;-56
2023/05/31 19:40:43;;;;;;;5.18;1.58;;;19.70;93.50;;;;;;7327118;32;20446;-57
2023/05/31 19:44:45;;;;;;;5.00;1.73;;;19.60;94.40;;;;;;7311314;32;20527;-56
2023/05/31 19:48:47;;;;;;;7.30;1.95;;;19.40;94.80;;;;;;7322784;32;20368;-56
2023/05/31 19:52:48;;;;;;;6.82;1.92;;;19.50;95.20;;;;;;7327508;32;20130;-55
2023/05/31 19:56:50;;;;;;;4.62;1.75;;;19.20;96.00;;;;;;7326926;32;20126;-56
2023/05/31 20:00:52;;;;;;;7.93;2.42;;;19.10;96.90;;;;;;7327565;32;20127;-56
2023/05/31 20:04:54;;;;;;;5.10;1.65;;;19.10;97.60;;;;;;7327136;32;20596;-56
2023/05/31 20:08:56;;;;;;;8.63;4.05;;;19.00;98.30;;;;;;7326131;32;20600;-55
2023/05/31 20:12:58;;;;;;;6.22;1.87;;;19.00;99.40;;;;;;7326141;32;20182;-56
2023/05/31 20:17:00;;;;;;;6.72;1.92;;;18.80;99.90;;;;;;7323940;32;20196;-56
2023/05/31 20:21:02;;;;;;;6.80;2.03;;;18.70;99.90;;;;;;7321609;32;20222;-55
2023/05/31 20:25:04;;;;;;;4.03;1.73;;;18.60;99.90;;;;;;7327764;32;20126;-55
2023/05/31 20:29:06;;;;;;;8.98;2.25;;;18.50;99.90;;;;;;7323351;32;20636;-56
2023/05/31 20:33:08;;;;;;;6.70;1.83;;;18.40;99.90;;;;;;7322199;32;20365;-56
2023/05/31 20:37:10;;;;;;;5.80;1.90;;;18.30;99.90;;;;;;7326428;32;20116;-56
2023/05/31 20:41:12;;;;;;;3.58;1.90;;;18.00;99.90;;;;;;7327353;32;20129;-56
2023/05/31 20:45:14;;;;;;;3.60;1.62;;;17.90;99.90;;;;;;7329523;32;20088;-56
2023/05/31 20:49:15;;;;;;;5.03;1.70;;;17.70;99.90;;;;;;7328329;32;20108;-58
2023/05/31 20:53:17;;;;;;;5.43;1.92;;;17.60;99.90;;;;;;7321300;32;20092;-57
2023/05/31 20:57:19;;;;;;;5.40;2.30;;;17.30;99.90;;;;;;7325535;32;20111;-56